createdAt,value
2017-10-30T00:00:03.395Z,1013.31
2017-10-30T00:01:04.002Z,1013.30
2017-10-30T00:02:04.609Z,1013.29
2017-10-30T00:03:05.212Z,1013.32
2017-10-30T00:04:05.815Z,1013.32
2017-10-30T00:05:06.418Z,1013.30
2017-10-30T00:06:07.025Z,1013.30
2017-10-30T00:07:07.633Z,1013.33
2017-10-30T00:08:08.243Z,1013.30
2017-10-30T00:09:08.844Z,1013.31
2017-10-30T00:10:09.434Z,1013.29
2017-10-30T00:11:10.040Z,1013.32
2017-10-30T00:12:10.648Z,1013.27
2017-10-30T00:13:11.246Z,1013.29
2017-10-30T00:14:11.849Z,1013.25
2017-10-30T00:15:12.459Z,1013.29
2017-10-30T00:16:13.062Z,1013.28
2017-10-30T00:17:13.669Z,1013.34
2017-10-30T00:18:14.273Z,1013.37
2017-10-30T00:19:14.887Z,1013.36
2017-10-30T00:20:15.473Z,1013.40
2017-10-30T00:21:16.073Z,1013.40
2017-10-30T00:22:16.669Z,1013.43
2017-10-30T00:23:17.270Z,1013.44
2017-10-30T00:24:17.876Z,1013.37
2017-10-30T00:25:18.483Z,1013.36
2017-10-30T00:26:19.077Z,1013.36
2017-10-30T00:27:19.678Z,1013.37
2017-10-30T00:28:20.284Z,1013.36
2017-10-30T00:29:20.894Z,1013.33
2017-10-30T00:30:21.498Z,1013.31
2017-10-30T00:31:22.091Z,1013.35
2017-10-30T00:32:22.700Z,1013.36
2017-10-30T00:33:23.301Z,1013.40
2017-10-30T00:34:23.902Z,1013.38
2017-10-30T00:35:24.505Z,1013.41
2017-10-30T00:36:25.113Z,1013.47
2017-10-30T00:37:25.717Z,1013.46
2017-10-30T00:38:26.320Z,1013.47
2017-10-30T00:39:26.921Z,1013.45
2017-10-30T00:40:27.527Z,1013.45
2017-10-30T00:41:28.129Z,1013.47
2017-10-30T00:42:28.737Z,1013.47
2017-10-30T00:43:29.334Z,1013.45
2017-10-30T00:44:29.939Z,1013.45
2017-10-30T00:45:30.547Z,1013.48
2017-10-30T00:46:31.148Z,1013.49
2017-10-30T00:47:31.748Z,1013.48
2017-10-30T00:48:32.351Z,1013.49
2017-10-30T00:49:32.959Z,1013.56
2017-10-30T00:50:33.585Z,1013.56
2017-10-30T00:51:34.165Z,1013.59
2017-10-30T00:52:34.767Z,1013.66
2017-10-30T00:53:35.365Z,1013.57
2017-10-30T00:54:35.964Z,1013.60
2017-10-30T00:55:36.561Z,1013.61
2017-10-30T00:56:37.151Z,1013.55
2017-10-30T00:57:37.748Z,1013.58
2017-10-30T00:58:38.357Z,1013.60
2017-10-30T00:59:38.970Z,1013.55
2017-10-30T01:01:23.779Z,1013.58
2017-10-30T01:02:24.382Z,1013.49
2017-10-30T01:03:24.985Z,1013.49
2017-10-30T01:04:25.575Z,1013.48
2017-10-30T01:05:26.182Z,1013.52
2017-10-30T01:06:26.782Z,1013.52
2017-10-30T01:07:27.394Z,1013.49
2017-10-30T01:08:27.980Z,1013.53
2017-10-30T01:09:28.578Z,1013.58
2017-10-30T01:10:29.186Z,1013.57
2017-10-30T01:11:29.792Z,1013.55
2017-10-30T01:12:30.398Z,1013.59
2017-10-30T01:13:30.997Z,1013.56
2017-10-30T01:14:31.599Z,1013.56
2017-10-30T01:15:32.202Z,1013.55
2017-10-30T01:16:32.807Z,1013.52
2017-10-30T01:17:33.402Z,1013.47
2017-10-30T01:18:34.004Z,1013.48
2017-10-30T01:19:34.597Z,1013.43
2017-10-30T01:20:35.196Z,1013.43
2017-10-30T01:21:35.796Z,1013.45
2017-10-30T01:22:36.398Z,1013.48
2017-10-30T01:23:36.996Z,1013.49
2017-10-30T01:24:37.597Z,1013.50
2017-10-30T01:25:38.194Z,1013.52
2017-10-30T01:26:38.792Z,1013.53
2017-10-30T01:27:39.407Z,1013.61
2017-10-30T01:28:39.994Z,1013.59
2017-10-30T01:29:40.604Z,1013.59
2017-10-30T01:30:41.208Z,1013.62
2017-10-30T01:31:41.806Z,1013.61
2017-10-30T01:32:42.412Z,1013.65
2017-10-30T01:33:43.005Z,1013.67
2017-10-30T01:34:43.611Z,1013.65
2017-10-30T01:35:44.211Z,1013.64
2017-10-30T01:36:44.808Z,1013.60
2017-10-30T01:37:45.409Z,1013.60
2017-10-30T01:38:46.018Z,1013.65
2017-10-30T01:39:46.618Z,1013.61
2017-10-30T01:40:47.210Z,1013.68
2017-10-30T01:41:47.803Z,1013.72
2017-10-30T01:42:48.415Z,1013.73
2017-10-30T01:43:48.989Z,1013.70
2017-10-30T01:44:49.582Z,1013.74
2017-10-30T01:45:50.188Z,1013.75
2017-10-30T01:46:50.790Z,1013.75
2017-10-30T01:47:51.397Z,1013.75
2017-10-30T01:48:52.003Z,1013.70
2017-10-30T01:49:52.607Z,1013.71
2017-10-30T01:50:53.220Z,1013.71
2017-10-30T01:51:53.816Z,1013.72
2017-10-30T01:52:54.422Z,1013.67
2017-10-30T01:53:55.032Z,1013.72
2017-10-30T01:54:55.630Z,1013.75
2017-10-30T01:55:56.224Z,1013.79
2017-10-30T01:56:56.818Z,1013.85
2017-10-30T01:57:57.413Z,1013.82
2017-10-30T01:58:58.014Z,1013.82
2017-10-30T01:59:58.615Z,1013.81
2017-10-30T02:00:59.221Z,1013.79
2017-10-30T02:01:59.817Z,1013.82
2017-10-30T02:03:00.412Z,1013.79
2017-10-30T02:04:01.005Z,1013.79
2017-10-30T02:05:01.604Z,1013.81
2017-10-30T02:06:02.216Z,1013.79
2017-10-30T02:07:02.844Z,1013.76
2017-10-30T02:08:03.427Z,1013.75
2017-10-30T02:09:04.027Z,1013.76
2017-10-30T02:10:04.628Z,1013.75
2017-10-30T02:11:05.219Z,1013.77
2017-10-30T02:12:05.825Z,1013.81
2017-10-30T02:13:06.440Z,1013.78
2017-10-30T02:14:07.040Z,1013.76
2017-10-30T02:15:07.645Z,1013.84
2017-10-30T02:16:08.256Z,1013.84
2017-10-30T02:17:08.855Z,1013.83
2017-10-30T02:18:09.462Z,1013.86
2017-10-30T02:19:10.069Z,1013.86
2017-10-30T02:20:10.672Z,1013.87
2017-10-30T02:21:11.267Z,1013.86
2017-10-30T02:22:11.865Z,1013.83
2017-10-30T02:23:12.467Z,1013.78
2017-10-30T02:24:13.064Z,1013.78
2017-10-30T02:25:13.671Z,1013.77
2017-10-30T02:26:14.282Z,1013.75
2017-10-30T02:27:14.873Z,1013.73
2017-10-30T02:28:15.482Z,1013.71
2017-10-30T02:29:16.078Z,1013.74
2017-10-30T02:30:16.679Z,1013.74
2017-10-30T02:31:17.286Z,1013.80
2017-10-30T02:32:17.911Z,1013.78
2017-10-30T02:33:18.475Z,1013.81
2017-10-30T02:34:19.093Z,1013.86
2017-10-30T02:35:19.679Z,1013.84
2017-10-30T02:36:20.280Z,1013.83
2017-10-30T02:37:20.872Z,1013.78
2017-10-30T02:38:21.464Z,1013.81
2017-10-30T02:39:22.056Z,1013.81
2017-10-30T02:40:22.655Z,1013.78
2017-10-30T02:41:23.249Z,1013.82
2017-10-30T02:42:23.842Z,1013.84
2017-10-30T02:43:24.448Z,1013.82
2017-10-30T02:44:25.054Z,1013.86
2017-10-30T02:45:25.650Z,1013.87
2017-10-30T02:46:26.240Z,1013.89
2017-10-30T02:47:26.844Z,1013.88
2017-10-30T02:48:27.436Z,1013.90
2017-10-30T02:49:28.039Z,1013.92
2017-10-30T02:50:28.666Z,1013.93
2017-10-30T02:51:29.252Z,1013.94
2017-10-30T02:52:29.859Z,1013.94
2017-10-30T02:53:30.461Z,1013.93
2017-10-30T02:54:31.061Z,1013.99
2017-10-30T02:55:31.682Z,1013.99
2017-10-30T02:56:32.273Z,1013.96
2017-10-30T02:57:32.861Z,1013.97
2017-10-30T02:58:33.464Z,1014.01
2017-10-30T02:59:34.077Z,1013.97
2017-10-30T03:00:34.673Z,1013.99
2017-10-30T03:01:35.279Z,1014.01
2017-10-30T03:02:35.881Z,1014.01
2017-10-30T03:03:36.487Z,1014.03
2017-10-30T03:04:37.079Z,1014.09
2017-10-30T03:05:37.677Z,1014.09
2017-10-30T03:06:38.287Z,1014.09
2017-10-30T03:07:38.887Z,1014.11
2017-10-30T03:08:39.498Z,1014.11
2017-10-30T03:09:40.092Z,1014.12
2017-10-30T03:10:40.696Z,1014.12
2017-10-30T03:11:41.302Z,1014.11
2017-10-30T03:12:41.901Z,1014.14
2017-10-30T03:13:42.505Z,1014.15
2017-10-30T03:14:43.103Z,1014.17
2017-10-30T03:15:43.704Z,1014.15
2017-10-30T03:16:44.323Z,1014.19
2017-10-30T03:17:44.907Z,1014.21
2017-10-30T03:18:45.512Z,1014.26
2017-10-30T03:19:46.111Z,1014.28
2017-10-30T03:20:46.704Z,1014.24
2017-10-30T03:21:47.292Z,1014.21
2017-10-30T03:22:47.896Z,1014.23
2017-10-30T03:23:48.493Z,1014.26
2017-10-30T03:24:49.095Z,1014.27
2017-10-30T03:25:49.699Z,1014.27
2017-10-30T03:26:50.301Z,1014.25
2017-10-30T03:27:50.904Z,1014.31
2017-10-30T03:28:51.508Z,1014.33
2017-10-30T03:29:52.119Z,1014.33
2017-10-30T03:30:52.722Z,1014.31
2017-10-30T03:31:53.326Z,1014.35
2017-10-30T03:32:53.928Z,1014.34
2017-10-30T03:33:54.538Z,1014.34
2017-10-30T03:34:55.143Z,1014.37
2017-10-30T03:35:55.751Z,1014.40
2017-10-30T03:36:56.339Z,1014.40
2017-10-30T03:37:56.977Z,1014.39
2017-10-30T03:38:57.545Z,1014.42
2017-10-30T03:39:58.148Z,1014.42
2017-10-30T03:40:58.744Z,1014.44
2017-10-30T03:41:59.352Z,1014.45
2017-10-30T03:42:59.957Z,1014.42
2017-10-30T03:44:00.562Z,1014.45
2017-10-30T03:45:01.168Z,1014.47
2017-10-30T03:46:01.760Z,1014.46
2017-10-30T03:47:02.360Z,1014.47
2017-10-30T03:48:02.956Z,1014.51
2017-10-30T03:49:03.558Z,1014.47
2017-10-30T03:50:04.151Z,1014.52
2017-10-30T03:51:04.760Z,1014.48
2017-10-30T03:52:05.357Z,1014.53
2017-10-30T03:53:05.955Z,1014.52
2017-10-30T03:54:06.589Z,1014.52
2017-10-30T03:55:07.173Z,1014.55
2017-10-30T03:56:07.776Z,1014.56
2017-10-30T03:57:08.367Z,1014.60
2017-10-30T03:58:08.966Z,1014.62
2017-10-30T03:59:09.568Z,1014.61
2017-10-30T04:00:10.178Z,1014.62
2017-10-30T04:01:10.783Z,1014.65
2017-10-30T04:02:11.379Z,1014.65
2017-10-30T04:03:11.971Z,1014.68
2017-10-30T04:04:12.570Z,1014.68
2017-10-30T04:05:13.177Z,1014.66
2017-10-30T04:06:13.783Z,1014.76
2017-10-30T04:07:14.387Z,1014.79
2017-10-30T04:08:14.988Z,1014.76
2017-10-30T04:09:15.597Z,1014.77
2017-10-30T04:10:16.190Z,1014.79
2017-10-30T04:11:16.786Z,1014.75
2017-10-30T04:12:17.394Z,1014.78
2017-10-30T04:13:17.988Z,1014.73
2017-10-30T04:14:18.576Z,1014.73
2017-10-30T04:15:19.200Z,1014.73
2017-10-30T04:16:19.782Z,1014.70
2017-10-30T04:17:20.384Z,1014.68
2017-10-30T04:18:20.987Z,1014.68
2017-10-30T04:19:21.594Z,1014.64
2017-10-30T04:20:22.180Z,1014.63
2017-10-30T04:21:22.776Z,1014.68
2017-10-30T04:22:23.377Z,1014.69
2017-10-30T04:23:23.979Z,1014.69
2017-10-30T04:24:24.585Z,1014.73
2017-10-30T04:25:25.187Z,1014.72
2017-10-30T04:26:25.797Z,1014.72
2017-10-30T04:27:26.379Z,1014.75
2017-10-30T04:28:26.981Z,1014.78
2017-10-30T04:29:27.583Z,1014.83
2017-10-30T04:30:28.180Z,1014.88
2017-10-30T04:31:28.771Z,1014.88
2017-10-30T04:32:29.364Z,1014.89
2017-10-30T04:33:29.972Z,1014.92
2017-10-30T04:34:30.573Z,1014.95
2017-10-30T04:35:31.173Z,1014.95
2017-10-30T04:36:31.774Z,1014.96
2017-10-30T04:37:32.378Z,1014.95
2017-10-30T04:38:32.973Z,1014.93
2017-10-30T04:39:33.584Z,1014.97
2017-10-30T04:40:34.186Z,1014.99
2017-10-30T04:41:34.787Z,1014.98
2017-10-30T04:42:35.418Z,1014.99
2017-10-30T04:43:35.978Z,1015.03
2017-10-30T04:44:36.580Z,1015.02
2017-10-30T04:45:37.172Z,1015.09
2017-10-30T04:46:37.776Z,1015.04
2017-10-30T04:47:38.368Z,1015.05
2017-10-30T04:48:38.978Z,1015.05
2017-10-30T04:49:39.581Z,1015.02
2017-10-30T04:50:40.176Z,1014.99
2017-10-30T04:51:40.781Z,1015.02
2017-10-30T04:52:41.389Z,1014.96
2017-10-30T04:53:41.982Z,1014.99
2017-10-30T04:54:42.601Z,1015.01
2017-10-30T04:55:43.190Z,1015.01
2017-10-30T04:56:43.790Z,1015.02
2017-10-30T04:57:44.381Z,1015.06
2017-10-30T04:58:44.988Z,1015.11
2017-10-30T04:59:45.588Z,1015.10
2017-10-30T05:00:46.185Z,1015.10
2017-10-30T05:01:46.786Z,1015.11
2017-10-30T05:02:47.381Z,1015.16
2017-10-30T05:03:47.987Z,1015.09
2017-10-30T05:04:48.595Z,1015.13
2017-10-30T05:05:49.194Z,1015.11
2017-10-30T05:06:49.781Z,1015.11
2017-10-30T05:07:50.380Z,1015.09
2017-10-30T05:08:50.982Z,1015.16
2017-10-30T05:09:51.599Z,1015.17
2017-10-30T05:10:52.198Z,1015.19
2017-10-30T05:11:52.805Z,1015.22
2017-10-30T05:12:53.412Z,1015.23
2017-10-30T05:13:54.015Z,1015.21
2017-10-30T05:14:54.602Z,1015.25
2017-10-30T05:15:55.199Z,1015.27
2017-10-30T05:16:55.799Z,1015.30
2017-10-30T05:17:56.398Z,1015.25
2017-10-30T05:18:56.989Z,1015.29
2017-10-30T05:19:57.596Z,1015.24
2017-10-30T05:20:58.200Z,1015.25
2017-10-30T05:21:58.802Z,1015.24
2017-10-30T05:22:59.405Z,1015.24
2017-10-30T05:24:00.010Z,1015.22
2017-10-30T05:25:00.621Z,1015.23
2017-10-30T05:26:01.230Z,1015.23
2017-10-30T05:27:01.819Z,1015.22
2017-10-30T05:28:02.426Z,1015.25
2017-10-30T05:29:03.018Z,1015.27
2017-10-30T05:30:03.608Z,1015.28
2017-10-30T05:31:04.198Z,1015.30
2017-10-30T05:32:04.794Z,1015.32
2017-10-30T05:33:05.396Z,1015.34
2017-10-30T05:34:06.012Z,1015.29
2017-10-30T05:35:06.587Z,1015.31
2017-10-30T05:36:07.194Z,1015.34
2017-10-30T05:37:07.798Z,1015.31
2017-10-30T05:38:08.405Z,1015.31
2017-10-30T05:39:09.014Z,1015.32
2017-10-30T05:40:09.619Z,1015.35
2017-10-30T05:41:10.220Z,1015.38
2017-10-30T05:42:10.857Z,1015.39
2017-10-30T05:43:11.416Z,1015.42
2017-10-30T05:44:12.021Z,1015.42
2017-10-30T05:45:12.611Z,1015.43
2017-10-30T05:46:13.198Z,1015.39
2017-10-30T05:47:13.791Z,1015.39
2017-10-30T05:48:14.417Z,1015.39
2017-10-30T05:49:14.989Z,1015.40
2017-10-30T05:50:15.595Z,1015.41
2017-10-30T05:51:16.213Z,1015.41
2017-10-30T05:52:16.798Z,1015.45
2017-10-30T05:53:17.389Z,1015.46
2017-10-30T05:54:18.038Z,1015.48
2017-10-30T05:55:18.595Z,1015.49
2017-10-30T05:56:19.227Z,1015.53
2017-10-30T05:57:19.799Z,1015.52
2017-10-30T05:58:20.406Z,1015.51
2017-10-30T05:59:21.011Z,1015.46
2017-10-30T06:00:21.634Z,1015.47
2017-10-30T06:01:22.235Z,1015.48
2017-10-30T06:02:22.844Z,1015.48
2017-10-30T06:03:23.452Z,1015.45
2017-10-30T06:04:24.057Z,1015.46
2017-10-30T06:05:24.660Z,1015.44
2017-10-30T06:06:25.270Z,1015.45
2017-10-30T06:07:25.862Z,1015.44
2017-10-30T06:08:26.464Z,1015.47
2017-10-30T06:09:27.058Z,1015.51
2017-10-30T06:10:27.652Z,1015.49
2017-10-30T06:11:28.269Z,1015.50
2017-10-30T06:12:28.851Z,1015.54
2017-10-30T06:13:29.449Z,1015.53
2017-10-30T06:14:30.051Z,1015.59
2017-10-30T06:15:30.657Z,1015.57
2017-10-30T06:16:31.252Z,1015.63
2017-10-30T06:17:31.863Z,1015.60
2017-10-30T06:18:32.461Z,1015.61
2017-10-30T06:19:33.063Z,1015.64
2017-10-30T06:20:33.675Z,1015.67
2017-10-30T06:21:34.277Z,1015.71
2017-10-30T06:22:34.878Z,1015.71
2017-10-30T06:23:35.472Z,1015.71
2017-10-30T06:24:36.086Z,1015.73
2017-10-30T06:25:36.676Z,1015.78
2017-10-30T06:26:37.270Z,1015.76
2017-10-30T06:27:37.871Z,1015.76
2017-10-30T06:28:38.464Z,1015.78
2017-10-30T06:29:39.073Z,1015.76
2017-10-30T06:30:39.681Z,1015.75
2017-10-30T06:31:40.278Z,1015.77
2017-10-30T06:32:40.872Z,1015.76
2017-10-30T06:33:41.465Z,1015.75
2017-10-30T06:34:42.063Z,1015.79
2017-10-30T06:35:42.666Z,1015.76
2017-10-30T06:36:43.277Z,1015.77
2017-10-30T06:37:43.879Z,1015.73
2017-10-30T06:38:44.483Z,1015.75
2017-10-30T06:39:45.268Z,1015.80
2017-10-30T06:40:45.863Z,1015.79
2017-10-30T06:41:46.465Z,1015.82
2017-10-30T06:42:47.062Z,1015.82
2017-10-30T06:43:47.668Z,1015.85
2017-10-30T06:44:48.274Z,1015.84
2017-10-30T06:45:48.882Z,1015.89
2017-10-30T06:46:49.492Z,1015.90
2017-10-30T06:47:50.104Z,1015.90
2017-10-30T06:48:50.708Z,1015.91
2017-10-30T06:49:51.308Z,1015.95
2017-10-30T06:50:51.911Z,1015.96
2017-10-30T06:51:52.520Z,1015.93
2017-10-30T06:52:53.129Z,1015.96
2017-10-30T06:53:53.739Z,1015.96
2017-10-30T06:54:54.351Z,1015.98
2017-10-30T06:55:54.948Z,1016.01
2017-10-30T06:56:55.550Z,1016.02
2017-10-30T06:57:56.162Z,1016.03
2017-10-30T06:58:56.765Z,1016.03
2017-10-30T06:59:57.374Z,1016.08
2017-10-30T07:00:57.974Z,1016.09
2017-10-30T07:01:58.581Z,1016.10
2017-10-30T07:02:59.187Z,1016.12
2017-10-30T07:03:59.796Z,1016.12
2017-10-30T07:05:00.410Z,1016.10
2017-10-30T07:06:01.003Z,1016.14
2017-10-30T07:07:01.615Z,1016.11
2017-10-30T07:08:02.217Z,1016.16
2017-10-30T07:09:02.821Z,1016.15
2017-10-30T07:10:03.433Z,1016.19
2017-10-30T07:11:04.046Z,1016.21
2017-10-30T07:12:04.655Z,1016.22
2017-10-30T07:13:05.259Z,1016.28
2017-10-30T07:14:05.872Z,1016.29
2017-10-30T07:15:06.465Z,1016.29
2017-10-30T07:16:07.079Z,1016.31
2017-10-30T07:17:07.685Z,1016.32
2017-10-30T07:18:08.287Z,1016.34
2017-10-30T07:19:08.895Z,1016.38
2017-10-30T07:20:09.503Z,1016.40
2017-10-30T07:21:10.123Z,1016.40
2017-10-30T07:22:10.735Z,1016.41
2017-10-30T07:23:11.349Z,1016.42
2017-10-30T07:24:11.962Z,1016.44
2017-10-30T07:25:12.574Z,1016.42
2017-10-30T07:26:13.209Z,1016.43
2017-10-30T07:27:13.821Z,1016.44
2017-10-30T07:28:14.433Z,1016.44
2017-10-30T07:29:15.044Z,1016.45
2017-10-30T07:30:15.656Z,1016.41
2017-10-30T07:31:16.266Z,1016.44
2017-10-30T07:32:16.880Z,1016.49
2017-10-30T07:33:17.493Z,1016.45
2017-10-30T07:34:18.104Z,1016.47
2017-10-30T07:35:18.715Z,1016.51
2017-10-30T07:36:19.326Z,1016.53
2017-10-30T07:37:19.938Z,1016.55
2017-10-30T07:38:20.550Z,1016.59
2017-10-30T07:39:21.162Z,1016.64
2017-10-30T07:40:21.795Z,1016.66
2017-10-30T07:41:22.397Z,1016.64
2017-10-30T07:42:22.998Z,1016.65
2017-10-30T07:43:23.619Z,1016.66
2017-10-30T07:44:24.227Z,1016.64
2017-10-30T07:45:24.830Z,1016.66
2017-10-30T07:46:25.433Z,1016.66
2017-10-30T07:47:26.046Z,1016.70
2017-10-30T07:48:26.652Z,1016.64
2017-10-30T07:49:27.253Z,1016.68
2017-10-30T07:50:27.867Z,1016.68
2017-10-30T07:51:28.481Z,1016.70
2017-10-30T07:52:29.091Z,1016.71
2017-10-30T07:53:29.710Z,1016.74
2017-10-30T07:54:30.330Z,1016.78
2017-10-30T07:55:30.946Z,1016.80
2017-10-30T07:56:31.577Z,1016.78
2017-10-30T07:57:32.172Z,1016.82
2017-10-30T07:58:32.786Z,1016.81
2017-10-30T07:59:33.391Z,1016.86
2017-10-30T08:00:34.005Z,1016.77
2017-10-30T08:01:34.617Z,1016.77
2017-10-30T08:02:35.216Z,1016.78
2017-10-30T08:03:35.824Z,1016.78
2017-10-30T08:04:36.436Z,1016.83
2017-10-30T08:05:37.042Z,1016.81
2017-10-30T08:06:37.646Z,1016.84
2017-10-30T08:07:38.249Z,1016.81
2017-10-30T08:08:38.862Z,1016.82
2017-10-30T08:09:39.462Z,1016.86
2017-10-30T08:10:40.065Z,1016.86
2017-10-30T08:11:40.680Z,1016.83
2017-10-30T08:12:41.280Z,1016.87
2017-10-30T08:13:41.881Z,1016.86
2017-10-30T08:14:42.490Z,1016.87
2017-10-30T08:15:43.088Z,1016.89
2017-10-30T08:16:43.697Z,1016.84
2017-10-30T08:17:44.302Z,1016.86
2017-10-30T08:18:44.912Z,1016.86
2017-10-30T08:19:45.511Z,1016.87
2017-10-30T08:20:46.119Z,1016.76
2017-10-30T08:21:46.737Z,1016.80
2017-10-30T08:22:47.322Z,1016.85
2017-10-30T08:23:47.933Z,1016.82
2017-10-30T08:24:48.551Z,1016.82
2017-10-30T08:25:49.159Z,1016.87
2017-10-30T08:26:49.772Z,1016.86
2017-10-30T08:27:50.386Z,1016.84
2017-10-30T08:28:50.993Z,1016.86
2017-10-30T08:29:51.593Z,1016.87
2017-10-30T08:30:52.202Z,1016.91
2017-10-30T08:31:52.814Z,1016.88
2017-10-30T08:32:53.430Z,1016.87
2017-10-30T08:33:54.040Z,1016.88
2017-10-30T08:34:54.652Z,1016.91
2017-10-30T08:35:55.263Z,1016.89
2017-10-30T08:36:55.867Z,1016.90
2017-10-30T08:37:56.478Z,1016.93
2017-10-30T08:38:57.081Z,1016.87
2017-10-30T08:39:57.696Z,1016.90
2017-10-30T08:40:58.307Z,1016.87
2017-10-30T08:41:58.915Z,1016.87
2017-10-30T08:42:59.529Z,1016.89
2017-10-30T08:44:00.141Z,1016.88
2017-10-30T08:45:00.744Z,1016.91
2017-10-30T08:46:01.365Z,1016.91
2017-10-30T08:47:01.981Z,1016.93
2017-10-30T08:48:02.599Z,1016.93
2017-10-30T08:49:03.215Z,1016.89
2017-10-30T08:50:03.824Z,1016.97
2017-10-30T08:51:04.438Z,1016.92
2017-10-30T08:52:05.055Z,1016.92
2017-10-30T08:53:05.663Z,1016.93
2017-10-30T08:54:06.280Z,1016.95
2017-10-30T08:55:06.876Z,1016.95
2017-10-30T08:56:07.488Z,1016.94
2017-10-30T08:57:08.096Z,1016.94
2017-10-30T08:58:08.707Z,1016.97
2017-10-30T08:59:09.319Z,1016.99
2017-10-30T09:00:09.921Z,1016.99
2017-10-30T09:01:10.540Z,1017.00
2017-10-30T09:02:11.151Z,1016.98
2017-10-30T09:03:11.761Z,1017.02
2017-10-30T09:04:12.373Z,1016.96
2017-10-30T09:05:12.988Z,1016.98
2017-10-30T09:06:13.909Z,1017.00
2017-10-30T09:07:14.450Z,1017.06
2017-10-30T09:08:15.067Z,1017.09
2017-10-30T09:09:15.677Z,1017.07
2017-10-30T09:10:16.281Z,1017.18
2017-10-30T09:11:16.902Z,1017.16
2017-10-30T09:12:17.517Z,1017.20
2017-10-30T09:13:18.126Z,1017.20
2017-10-30T09:14:18.746Z,1017.15
2017-10-30T09:15:19.364Z,1017.23
2017-10-30T09:16:19.977Z,1017.21
2017-10-30T09:17:20.585Z,1017.24
2017-10-30T09:18:21.201Z,1017.21
2017-10-30T09:19:21.817Z,1017.19
2017-10-30T09:20:22.436Z,1017.24
2017-10-30T09:21:23.049Z,1017.22
2017-10-30T09:22:23.662Z,1017.20
2017-10-30T09:23:24.284Z,1017.22
2017-10-30T09:24:24.907Z,1017.18
2017-10-30T09:25:25.528Z,1017.21
2017-10-30T09:26:26.134Z,1017.21
2017-10-30T09:27:26.744Z,1017.22
2017-10-30T09:28:27.349Z,1017.24
2017-10-30T09:29:27.957Z,1017.26
2017-10-30T09:30:28.572Z,1017.28
2017-10-30T09:31:29.190Z,1017.29
2017-10-30T09:32:29.809Z,1017.28
2017-10-30T09:33:30.431Z,1017.28
2017-10-30T09:34:31.028Z,1017.20
2017-10-30T09:35:31.643Z,1017.35
2017-10-30T09:36:32.263Z,1017.28
2017-10-30T09:37:32.878Z,1017.28
2017-10-30T09:38:33.488Z,1017.22
2017-10-30T09:39:34.109Z,1017.26
2017-10-30T09:40:34.730Z,1017.26
2017-10-30T09:41:35.355Z,1017.25
2017-10-30T09:42:35.965Z,1017.29
2017-10-30T09:43:36.607Z,1017.23
2017-10-30T09:44:37.229Z,1017.28
2017-10-30T09:45:37.842Z,1017.24
2017-10-30T09:46:38.447Z,1017.33
2017-10-30T09:47:39.066Z,1017.30
2017-10-30T09:48:39.683Z,1017.31
2017-10-30T09:49:40.293Z,1017.34
2017-10-30T09:50:40.908Z,1017.31
2017-10-30T09:51:41.528Z,1017.32
2017-10-30T09:52:42.149Z,1017.34
2017-10-30T09:53:42.757Z,1017.33
2017-10-30T09:54:43.368Z,1017.37
2017-10-30T09:55:43.983Z,1017.43
2017-10-30T09:56:44.593Z,1017.42
2017-10-30T09:57:45.202Z,1017.41
2017-10-30T09:58:45.811Z,1017.43
2017-10-30T09:59:46.432Z,1017.41
2017-10-30T10:00:47.059Z,1017.43
2017-10-30T10:01:47.662Z,1017.42
2017-10-30T10:02:48.269Z,1017.46
2017-10-30T10:03:48.884Z,1017.46
2017-10-30T10:04:49.722Z,1017.48
2017-10-30T10:05:50.338Z,1017.45
2017-10-30T10:06:50.958Z,1017.52
2017-10-30T10:07:51.561Z,1017.52
2017-10-30T10:08:52.182Z,1017.55
2017-10-30T10:09:52.899Z,1017.60
2017-10-30T10:10:53.508Z,1017.50
2017-10-30T10:11:54.119Z,1017.58
2017-10-30T10:12:54.742Z,1017.56
2017-10-30T10:13:55.357Z,1017.51
2017-10-30T10:14:55.978Z,1017.57
2017-10-30T10:15:56.600Z,1017.58
2017-10-30T10:16:57.210Z,1017.49
2017-10-30T10:17:57.824Z,1017.54
2017-10-30T10:18:58.441Z,1017.52
2017-10-30T10:19:59.064Z,1017.48
2017-10-30T10:20:59.673Z,1017.51
2017-10-30T10:22:00.404Z,1017.50
2017-10-30T10:23:01.089Z,1017.53
2017-10-30T10:24:01.649Z,1017.53
2017-10-30T10:25:02.258Z,1017.56
2017-10-30T10:26:03.051Z,1017.56
2017-10-30T10:27:03.694Z,1017.54
2017-10-30T10:28:04.520Z,1017.60
2017-10-30T10:29:05.135Z,1017.61
2017-10-30T10:30:05.753Z,1017.55
2017-10-30T10:31:06.370Z,1017.54
2017-10-30T10:32:06.996Z,1017.54
2017-10-30T10:33:07.615Z,1017.57
2017-10-30T10:34:08.235Z,1017.57
2017-10-30T10:35:08.859Z,1017.53
2017-10-30T10:36:09.476Z,1017.56
2017-10-30T10:37:10.084Z,1017.55
2017-10-30T10:38:10.703Z,1017.62
2017-10-30T10:39:11.323Z,1017.61
2017-10-30T10:40:11.937Z,1017.60
2017-10-30T10:41:12.558Z,1017.61
2017-10-30T10:42:13.183Z,1017.60
2017-10-30T10:43:13.800Z,1017.66
2017-10-30T10:44:14.403Z,1017.62
2017-10-30T10:45:15.050Z,1017.71
2017-10-30T10:46:15.639Z,1017.66
2017-10-30T10:47:16.260Z,1017.69
2017-10-30T10:48:16.895Z,1017.64
2017-10-30T10:49:17.508Z,1017.67
2017-10-30T10:50:18.133Z,1017.67
2017-10-30T10:51:18.755Z,1017.67
2017-10-30T10:52:19.359Z,1017.66
2017-10-30T10:53:19.979Z,1017.68
2017-10-30T10:54:20.596Z,1017.66
2017-10-30T10:55:21.217Z,1017.61
2017-10-30T10:56:21.836Z,1017.72
2017-10-30T10:57:22.459Z,1017.71
2017-10-30T10:58:23.061Z,1017.73
2017-10-30T10:59:23.678Z,1017.67
2017-10-30T11:00:24.279Z,1017.70
2017-10-30T11:01:24.898Z,1017.75
2017-10-30T11:02:25.529Z,1017.72
2017-10-30T11:03:26.135Z,1017.71
2017-10-30T11:04:26.756Z,1017.77
2017-10-30T11:05:27.379Z,1017.77
2017-10-30T11:06:27.998Z,1017.77
2017-10-30T11:07:28.617Z,1017.75
2017-10-30T11:08:29.234Z,1017.72
2017-10-30T11:09:29.859Z,1017.74
2017-10-30T11:10:30.481Z,1017.73
2017-10-30T11:11:31.101Z,1017.69
2017-10-30T11:12:31.724Z,1017.63
2017-10-30T11:13:32.339Z,1017.73
2017-10-30T11:14:32.967Z,1017.74
2017-10-30T11:15:33.582Z,1017.71
2017-10-30T11:16:34.202Z,1017.73
2017-10-30T11:17:34.819Z,1017.70
2017-10-30T11:18:35.429Z,1017.70
2017-10-30T11:19:36.045Z,1017.67
2017-10-30T11:20:36.671Z,1017.69
2017-10-30T11:21:37.288Z,1017.68
2017-10-30T11:22:37.901Z,1017.71
2017-10-30T11:23:38.533Z,1017.66
2017-10-30T11:24:39.140Z,1017.65
2017-10-30T11:25:39.763Z,1017.73
2017-10-30T11:26:40.383Z,1017.70
2017-10-30T11:27:41.008Z,1017.66
2017-10-30T11:28:41.628Z,1017.68
2017-10-30T11:29:42.248Z,1017.68
2017-10-30T11:30:42.875Z,1017.66
2017-10-30T11:31:43.491Z,1017.64
2017-10-30T11:32:44.105Z,1017.65
2017-10-30T11:33:44.719Z,1017.64
2017-10-30T11:34:45.336Z,1017.62
2017-10-30T11:35:45.954Z,1017.65
2017-10-30T11:36:46.566Z,1017.69
2017-10-30T11:37:47.183Z,1017.71
2017-10-30T11:38:47.805Z,1017.67
2017-10-30T11:39:48.422Z,1017.69
2017-10-30T11:40:49.025Z,1017.66
2017-10-30T11:41:49.632Z,1017.69
2017-10-30T11:42:50.251Z,1017.71
2017-10-30T11:43:50.871Z,1017.71
2017-10-30T11:44:51.492Z,1017.72
2017-10-30T11:45:52.112Z,1017.75
2017-10-30T11:46:52.793Z,1017.71
2017-10-30T11:47:53.354Z,1017.64
2017-10-30T11:48:53.972Z,1017.66
2017-10-30T11:49:54.581Z,1017.67
2017-10-30T11:50:55.192Z,1017.72
2017-10-30T11:51:55.809Z,1017.68
2017-10-30T11:52:56.411Z,1017.69
2017-10-30T11:53:57.034Z,1017.72
2017-10-30T11:54:57.647Z,1017.67
2017-10-30T11:55:58.280Z,1017.72
2017-10-30T11:56:58.893Z,1017.69
2017-10-30T11:57:59.515Z,1017.72
2017-10-30T11:59:00.129Z,1017.76
2017-10-30T12:00:00.744Z,1017.73
2017-10-30T12:01:01.365Z,1017.75
2017-10-30T12:02:01.987Z,1017.82
2017-10-30T12:03:02.604Z,1017.82
2017-10-30T12:04:03.220Z,1017.85
2017-10-30T12:05:03.836Z,1017.81
2017-10-30T12:06:04.455Z,1017.77
2017-10-30T12:07:05.082Z,1017.74
2017-10-30T12:08:05.711Z,1017.76
2017-10-30T12:09:06.335Z,1017.83
2017-10-30T12:10:06.941Z,1017.80
2017-10-30T12:11:07.688Z,1017.83
2017-10-30T12:12:08.302Z,1017.79
2017-10-30T12:13:08.916Z,1017.81